Time;durP1;ratioP1;P1;durP2;ratioP2;P2;SDS_P1;SDS_P2;PMS_P1;PMS_P2;Temp;Humidity;BMP_temperature;BMP_pressure;BME280_temperature;BME280_humidity;BME280_pressure;Samples;Min_cycle;Max_cycle;Signal;HPM_P1;HPM_P2
2022/01/08 00:09:09;;;;;;;0.63;0.30;;;-4.80;99.90;;;;;;20727067;28;20104;-52
2022/01/08 00:19:12;;;;;;;1.00;0.40;;;-5.10;99.90;;;;;;20726844;28;20547;-53
2022/01/08 00:29:14;;;;;;;0.52;0.20;;;-5.40;99.90;;;;;;20758206;28;20053;-54
2022/01/08 00:39:18;;;;;;;0.93;0.30;;;-5.60;99.90;;;;;;20914771;28;20037;-51
2022/01/08 00:49:22;;;;;;;0.50;0.20;;;-5.70;99.90;;;;;;20914666;28;20079;-52
2022/01/08 00:59:25;;;;;;;0.65;0.30;;;-5.90;99.90;;;;;;20912735;28;20091;-51
2022/01/08 01:09:27;;;;;;;0.88;0.20;;;-6.00;99.90;;;;;;20912412;28;20451;-51
2022/01/08 01:19:30;;;;;;;0.22;0.15;;;-6.00;99.90;;;;;;20911269;28;20103;-50
2022/01/08 01:50:05;;;;;;;;;;;-6.30;99.90;;;;;;20909685;28;20067;-52
2022/01/08 02:00:09;;;;;;;0.30;0.10;;;-6.30;99.90;;;;;;20908329;28;19982;-55
2022/01/08 02:10:15;;;;;;;1.50;0.20;;;-6.30;99.90;;;;;;20925662;28;20036;-51
2022/01/08 02:20:17;;;;;;;0.30;0.10;;;-6.30;99.90;;;;;;20906756;28;20535;-50
2022/01/08 02:30:20;;;;;;;1.23;0.50;;;-6.30;99.90;;;;;;20905807;28;20049;-50
2022/01/08 02:40:24;;;;;;;0.55;0.10;;;-6.20;99.90;;;;;;20905052;28;20102;-50
2022/01/08 02:50:26;;;;;;;1.20;0.00;;;-6.00;99.90;;;;;;20903190;28;20110;-51
2022/01/08 03:00:29;;;;;;;0.38;0.15;;;-6.30;99.90;;;;;;20903299;28;20056;-51
2022/01/08 03:10:32;;;;;;;0.20;0.00;;;-6.30;99.90;;;;;;20902987;28;20041;-50
2022/01/08 03:20:43;;;;;;;0.10;0.00;;;-6.20;99.90;;;;;;20902699;28;20067;-50
2022/01/08 03:30:46;;;;;;;0.60;0.00;;;-6.20;99.90;;;;;;20902082;28;20037;-50
2022/01/08 03:40:49;;;;;;;0.93;0.10;;;-6.10;99.90;;;;;;20900945;28;20488;-50
2022/01/08 03:50:52;;;;;;;0.73;0.10;;;-6.20;99.90;;;;;;20900592;28;20094;-49
2022/01/08 04:00:55;;;;;;;0.47;0.05;;;-6.30;99.90;;;;;;20899558;28;20044;-51
2022/01/08 04:10:57;;;;;;;0.08;0.00;;;-6.40;99.90;;;;;;20898953;28;20362;-51
2022/01/08 04:31:22;;;;;;;0.20;0.10;;;-6.00;99.90;;;;;;20883573;28;20151;-52
2022/01/08 04:41:25;;;;;;;0.75;0.10;;;-5.90;99.90;;;;;;20864825;28;20558;-53
2022/01/08 04:51:28;;;;;;;0.60;0.10;;;-5.90;99.90;;;;;;20880841;28;20045;-50
2022/01/08 05:01:31;;;;;;;0.30;0.03;;;-6.10;99.90;;;;;;20880639;28;20443;-49
2022/01/08 05:11:34;;;;;;;0.17;0.00;;;-6.30;99.90;;;;;;20881793;28;20455;-52
2022/01/08 05:21:38;;;;;;;0.13;0.00;;;-6.20;99.90;;;;;;20895504;28;20110;-50
2022/01/08 05:31:41;;;;;;;0.13;0.00;;;-6.20;99.90;;;;;;20894217;28;20094;-55
2022/01/08 05:41:43;;;;;;;0.55;0.08;;;-6.00;99.90;;;;;;20893328;28;20118;-52
2022/01/08 05:51:46;;;;;;;0.00;0.00;;;-5.90;99.90;;;;;;20892782;28;20067;-51
2022/01/08 06:01:49;;;;;;;0.10;0.00;;;-5.80;99.90;;;;;;20891700;28;20037;-53
2022/01/08 06:11:51;;;;;;;0.00;0.00;;;-5.70;99.90;;;;;;20890909;28;20036;-51
2022/01/08 06:21:54;;;;;;;0.28;0.00;;;-5.70;99.90;;;;;;20890174;28;20045;-51
2022/01/08 06:31:57;;;;;;;0.13;0.00;;;-5.70;99.90;;;;;;20917473;28;20098;-50
2022/01/08 06:41:59;;;;;;;0.45;0.10;;;-5.80;99.90;;;;;;20970906;28;20044;-51
2022/01/08 06:52:03;;;;;;;0.35;0.10;;;-5.90;99.90;;;;;;20924643;28;20057;-51
2022/01/08 07:02:06;;;;;;;0.45;0.00;;;-5.90;99.90;;;;;;20886999;28;20037;-51
2022/01/08 07:12:08;;;;;;;0.00;0.00;;;-6.00;99.90;;;;;;20885948;28;20781;-50
2022/01/08 07:22:11;;;;;;;0.28;0.00;;;-6.00;99.90;;;;;;20884554;28;20458;-49
2022/01/08 07:32:14;;;;;;;0.10;0.00;;;-5.90;99.90;;;;;;20884629;28;20075;-51
2022/01/08 07:42:17;;;;;;;0.50;0.10;;;-5.70;99.90;;;;;;20884584;28;20130;-50
2022/01/08 07:52:23;;;;;;;0.20;0.13;;;-5.70;99.90;;;;;;20883475;28;20130;-50
2022/01/08 08:02:26;;;;;;;0.15;0.08;;;-5.30;99.90;;;;;;20882770;28;20542;-54
2022/01/08 08:12:28;;;;;;;0.10;0.00;;;-4.60;99.90;;;;;;20882303;28;20045;-51
2022/01/08 08:22:31;;;;;;;0.20;0.08;;;-3.70;99.90;;;;;;20882386;28;20045;-54
2022/01/08 08:32:34;;;;;;;0.45;0.20;;;-2.80;99.90;;;;;;20881078;28;20045;-50
2022/01/08 08:42:37;;;;;;;0.35;0.10;;;-2.20;99.60;;;;;;20880887;28;20392;-49
2022/01/08 08:52:41;;;;;;;0.28;0.00;;;-1.40;97.20;;;;;;20875339;28;20472;-50
2022/01/08 09:02:44;;;;;;;0.57;0.20;;;-0.60;95.20;;;;;;20896445;28;20196;-50
2022/01/08 09:12:46;;;;;;;2.83;0.10;;;0.60;93.00;;;;;;20878809;28;20063;-50
2022/01/08 09:22:49;;;;;;;1.30;0.10;;;1.70;91.20;;;;;;20895440;28;20075;-52
2022/01/08 09:32:53;;;;;;;0.25;0.15;;;2.90;84.90;;;;;;20894791;28;20041;-50
2022/01/08 09:42:58;;;;;;;0.52;0.10;;;4.00;87.10;;;;;;20894240;28;20156;-51
2022/01/08 09:53:02;;;;;;;0.43;0.10;;;4.10;77.30;;;;;;20892813;28;20036;-50
2022/01/08 10:03:33;;;;;;;1.35;0.30;;;4.30;72.20;;;;;;20891212;28;20033;-53
2022/01/08 10:13:42;;;;;;;0.65;0.28;;;4.90;74.20;;;;;;20890253;28;20384;-56
2022/01/08 10:23:49;;;;;;;0.65;0.30;;;5.50;77.50;;;;;;20873106;28;20084;-50
2022/01/08 10:34:56;;;;;;;0.52;0.30;;;5.40;75.70;;;;;;20896809;28;20562;-51
2022/01/08 10:45:14;;;;;;;;;;;5.30;77.30;;;;;;20872091;28;20110;-53
2022/01/08 10:55:31;;;;;;;1.20;0.60;;;5.50;81.50;;;;;;20872133;28;20257;-52
2022/01/08 11:06:01;;;;;;;1.25;0.60;;;5.80;81.60;;;;;;20887703;28;20452;-52
2022/01/08 11:16:04;;;;;;;2.80;0.75;;;5.90;78.70;;;;;;20901446;28;20409;-51
2022/01/08 11:26:10;;;;;;;1.73;0.63;;;6.10;77.70;;;;;;20884142;28;20041;-52
2022/01/08 11:36:14;;;;;;;0.73;0.40;;;6.00;77.60;;;;;;20884038;28;20037;-57
2022/01/08 11:46:18;;;;;;;0.93;0.50;;;6.20;75.20;;;;;;20883105;28;20550;-55
2022/01/08 11:56:28;;;;;;;1.35;0.50;;;6.20;74.60;;;;;;20884004;28;20122;-52
2022/01/08 12:06:35;;;;;;;1.88;0.68;;;6.10;76.20;;;;;;20883279;28;20041;-56
2022/01/08 12:16:46;;;;;;;1.48;0.50;;;6.30;75.60;;;;;;20883678;28;20494;-53
2022/01/08 12:26:49;;;;;;;1.58;0.80;;;6.10;76.90;;;;;;20898100;28;20292;-53
2022/01/08 12:37:00;;;;;;;1.73;1.10;;;6.00;78.60;;;;;;20986012;28;20049;-53
2022/01/08 12:47:03;;;;;;;2.72;1.58;;;5.60;81.00;;;;;;20965441;28;20033;-52
2022/01/08 12:57:05;;;;;;;3.42;1.70;;;5.30;82.80;;;;;;20902111;28;20036;-53
2022/01/08 13:07:09;;;;;;;1.50;1.00;;;5.10;79.90;;;;;;20907363;28;20102;-54
2022/01/08 13:17:13;;;;;;;3.03;1.73;;;4.70;79.40;;;;;;20903394;28;20055;-53
2022/01/08 13:27:20;;;;;;;4.50;2.40;;;4.00;84.90;;;;;;20914225;28;20040;-53
2022/01/08 13:37:26;;;;;;;3.45;2.22;;;3.00;88.50;;;;;;20932498;28;20044;-55
2022/01/08 13:47:36;;;;;;;4.78;2.55;;;2.20;90.50;;;;;;20877545;28;20102;-53
2022/01/08 13:57:47;;;;;;;4.97;2.67;;;1.50;92.10;;;;;;20857998;28;20484;-52
2022/01/08 14:07:51;;;;;;;3.13;1.90;;;0.90;93.00;;;;;;20890567;28;20098;-53
2022/01/08 14:17:54;;;;;;;1.33;0.55;;;0.50;93.90;;;;;;20889849;28;20045;-51
2022/01/08 14:27:56;;;;;;;0.52;0.20;;;0.40;91.50;;;;;;20888534;28;20037;-51
2022/01/08 14:38:03;;;;;;;0.40;0.10;;;0.80;84.90;;;;;;20889006;28;20037;-53
2022/01/08 14:48:20;;;;;;;0.20;0.00;;;1.00;81.70;;;;;;20887692;28;20037;-52
2022/01/08 14:58:23;;;;;;;0.22;0.00;;;1.10;79.20;;;;;;20888045;28;20029;-53
2022/01/08 15:08:26;;;;;;;0.25;0.00;;;0.90;77.60;;;;;;20886541;28;20465;-52
2022/01/08 15:18:29;;;;;;;0.75;0.20;;;0.70;78.20;;;;;;20884727;28;20386;-52
2022/01/08 15:28:31;;;;;;;0.17;0.00;;;0.00;78.50;;;;;;20884099;28;20044;-52
2022/01/08 15:38:33;;;;;;;3.50;2.13;;;-0.50;81.90;;;;;;20883186;28;20122;-52
2022/01/08 15:48:36;;;;;;;9.05;2.53;;;-1.60;93.10;;;;;;20882289;28;20037;-55
2022/01/08 15:58:39;;;;;;;0.35;0.05;;;-2.50;97.40;;;;;;20882822;28;20041;-49
2022/01/08 16:08:43;;;;;;;1.15;0.10;;;-3.20;96.90;;;;;;20882725;28;20447;-51
2022/01/08 16:18:45;;;;;;;0.10;0.10;;;-3.10;96.60;;;;;;20881914;28;20041;-53
2022/01/08 16:28:48;;;;;;;0.25;0.00;;;-3.10;96.40;;;;;;20898821;28;20053;-51
2022/01/08 16:38:51;;;;;;;0.38;0.08;;;-3.10;95.60;;;;;;20964194;28;20546;-52
2022/01/08 16:48:54;;;;;;;0.20;0.00;;;-2.70;94.00;;;;;;20927389;28;20481;-56
2022/01/08 16:58:56;;;;;;;0.00;0.00;;;-2.60;93.40;;;;;;20880956;28;20094;-52
2022/01/08 17:08:59;;;;;;;0.00;0.00;;;-2.90;92.60;;;;;;20883184;28;20094;-51
2022/01/08 17:19:02;;;;;;;0.28;0.00;;;-2.70;92.40;;;;;;20894902;28;20040;-53
2022/01/08 17:29:05;;;;;;;0.15;0.00;;;-2.70;91.90;;;;;;20921015;28;20109;-52
2022/01/08 17:39:07;;;;;;;1.23;0.22;;;-2.80;91.40;;;;;;20994323;28;20110;-54
2022/01/08 17:49:11;;;;;;;3.22;1.00;;;-2.90;92.50;;;;;;20993184;28;20036;-50
2022/01/08 17:59:14;;;;;;;1.35;0.40;;;-2.50;86.10;;;;;;20923717;28;20102;-55
2022/01/08 18:09:19;;;;;;;0.08;0.00;;;-2.40;88.90;;;;;;20908402;28;20134;-53
2022/01/08 18:19:22;;;;;;;0.35;0.10;;;-2.80;90.80;;;;;;20908579;28;20032;-52
2022/01/08 18:29:25;;;;;;;0.00;0.00;;;-2.80;91.40;;;;;;20930659;28;20048;-52
2022/01/08 18:39:28;;;;;;;0.20;0.00;;;-3.40;92.40;;;;;;20988421;28;20062;-62
2022/01/08 18:49:32;;;;;;;0.82;0.25;;;-3.70;92.90;;;;;;20919599;28;20095;-51
2022/01/08 18:59:35;;;;;;;0.00;0.00;;;-4.10;93.20;;;;;;20903895;28;20036;-55
2022/01/08 19:09:38;;;;;;;0.30;0.00;;;-4.20;95.40;;;;;;20903050;28;20063;-54
2022/01/08 19:19:42;;;;;;;0.63;0.00;;;-4.30;94.80;;;;;;20901888;28;20032;-53
2022/01/08 19:29:44;;;;;;;0.00;0.00;;;-4.30;94.40;;;;;;20901125;28;20095;-53
2022/01/08 19:39:47;;;;;;;0.15;0.00;;;-4.30;95.20;;;;;;20900710;28;20033;-52
2022/01/08 19:49:50;;;;;;;0.00;0.00;;;-4.30;95.20;;;;;;20900397;28;20040;-53
2022/01/08 19:59:55;;;;;;;0.10;0.00;;;-4.30;96.00;;;;;;20900823;28;20610;-51
2022/01/08 20:09:58;;;;;;;0.35;0.10;;;-4.50;96.50;;;;;;20900344;28;20469;-52
2022/01/08 20:20:02;;;;;;;0.03;0.00;;;-4.60;96.30;;;;;;20899886;28;20418;-53
2022/01/08 20:30:09;;;;;;;0.35;0.00;;;-4.60;96.50;;;;;;20898454;28;20524;-53
2022/01/08 20:40:14;;;;;;;0.57;0.00;;;-4.60;97.00;;;;;;20882417;28;20041;-52
2022/01/08 20:50:21;;;;;;;0.00;0.00;;;-4.50;96.60;;;;;;20879242;28;20037;-52
2022/01/08 21:00:26;;;;;;;0.25;0.00;;;-4.50;96.40;;;;;;20913668;28;20099;-53
2022/01/08 21:10:31;;;;;;;0.00;0.00;;;-4.20;96.80;;;;;;20914084;28;20551;-52
2022/01/08 21:20:34;;;;;;;0.17;0.05;;;-4.00;96.70;;;;;;20912257;28;20094;-51
2022/01/08 21:30:38;;;;;;;1.23;0.20;;;-3.90;96.80;;;;;;20910929;28;20463;-54
2022/01/08 21:40:47;;;;;;;0.60;0.00;;;-3.70;97.10;;;;;;20912176;28;20098;-52
2022/01/08 21:50:50;;;;;;;0.38;0.10;;;-3.30;96.00;;;;;;20928262;28;20420;-51
2022/01/08 22:00:56;;;;;;;0.50;0.10;;;-2.90;96.20;;;;;;20908354;28;20545;-53
2022/01/08 22:11:07;;;;;;;0.20;0.10;;;-2.80;96.90;;;;;;20907917;28;20040;-52
2022/01/08 22:21:18;;;;;;;0.32;0.10;;;-2.80;99.20;;;;;;20875422;28;20090;-51
2022/01/08 22:31:21;;;;;;;0.30;0.05;;;-2.80;98.50;;;;;;20891015;28;20400;-53
2022/01/08 22:41:23;;;;;;;0.10;0.00;;;-2.90;97.90;;;;;;20889749;28;20492;-52
2022/01/08 22:51:30;;;;;;;0.10;0.00;;;-2.90;98.80;;;;;;20888541;28;20041;-54
2022/01/08 23:01:33;;;;;;;0.30;0.10;;;-3.10;97.90;;;;;;20888132;28;20062;-52
2022/01/08 23:11:36;;;;;;;0.50;0.30;;;-3.10;98.50;;;;;;20886422;28;20041;-56
2022/01/08 23:21:40;;;;;;;0.77;0.15;;;-3.00;97.70;;;;;;20886214;28;20067;-51
2022/01/08 23:31:44;;;;;;;0.65;0.10;;;-3.00;97.60;;;;;;20902657;28;20037;-53
2022/01/08 23:41:46;;;;;;;0.60;0.30;;;-3.20;99.60;;;;;;20885349;28;20049;-52
2022/01/08 23:51:49;;;;;;;0.35;0.10;;;-3.30;99.90;;;;;;20884628;28;20036;-52
